Flight Track Log - Related Links

Times and Time Zones

All times are in EDT time to prevent confusion due to time zone crossing. See the N213SR flight status page for this flight to view local times or setup timezone preferences in your user account.

Time Position Orientation Groundspeed Altitude Reporting Facility
EDT Latitude Longitude Course Direction KTS MPH feet Rate Location/Type
Tue 09:51:18 AM 30.3364 -81.5086 279° West 86 99 600  Level Jacksonville Center
Tue 09:53:02 AM 30.3453 -81.5736 279° West 146 168 2,100 878 Climbing Jacksonville Center
Tue 09:54:02 AM 30.3269 -81.6050 236° Southwest 136 157 3,000 939 Climbing Jacksonville Center
Tue 09:54:57 AM 30.2956 -81.6175 199° South 131 151 3,900 931 Climbing Jacksonville Center
Tue 09:55:58 AM 30.2625 -81.6372 207° Southwest 131 151 4,800 797 Climbing Jacksonville Center
Tue 09:57:05 AM 30.2272 -81.6569 206° Southwest 123 142 5,600 703 Climbing Jacksonville Center
Tue 09:58:06 AM 30.1981 -81.6764 210° Southwest 123 142 6,300 590 Climbing Jacksonville Center
Tue 09:59:07 AM 30.1628 -81.6939 203° Southwest 128 147 6,800 436 Climbing Jacksonville Center
Tue 09:59:56 AM 30.1358 -81.7086 205° Southwest 134 154 7,100 148 Climbing Jacksonville Center
Tue 10:01:09 AM 30.0900 -81.7306 203° Southwest 150 173 7,100 49 Level Jacksonville Center
Tue 10:01:58 AM 30.0608 -81.7478 207° Southwest 145 167 7,200 49 Climbing Jacksonville Center
Tue 10:03:11 AM 30.0153 -81.7747 207° Southwest 146 168 7,200 -45 Level Jacksonville Center
Tue 10:04:12 AM 29.9778 -81.7872 196° South 147 169 7,100 -52 Descending Jacksonville Center
Tue 10:05:07 AM 29.9425 -81.7947 190° South 146 168 7,100  Level Jacksonville Center
Tue 10:06:08 AM 29.9006 -81.8025 189° South 144 166 7,100 49 Level Jacksonville Center
Tue 10:07:09 AM 29.8633 -81.8147 196° South 141 162 7,200 52 Climbing Jacksonville Center
Tue 10:08:04 AM 29.8278 -81.8272 197° South 145 167 7,200  Level Jacksonville Center
Tue 10:09:05 AM 29.7839 -81.8347 188° South 146 168 7,200  Level Jacksonville Center
Tue 10:10:06 AM 29.7444 -81.8472 195° South 149 171 7,200  Level Jacksonville Center
Tue 10:11:07 AM 29.7050 -81.8547 189° South 149 171 7,200  Level Jacksonville Center
Tue 10:12:08 AM 29.6653 -81.8672 195° South 148 170 7,200  Level Jacksonville Center
Tue 10:13:09 AM 29.6236 -81.8772 192° South 147 169 7,200  Level Jacksonville Center
Tue 10:14:10 AM 29.5819 -81.8894 194° South 147 169 7,200  Level Jacksonville Center
Tue 10:15:11 AM 29.5403 -81.9019 195° South 146 168 7,200  Level Jacksonville Center
Tue 10:16:06 AM 29.5028 -81.9094 190° South 146 168 7,200  Level Jacksonville Center
Tue 10:17:06 AM 29.4653 -81.9217 196° South 145 167 7,200  Level Jacksonville Center
Tue 10:18:07 AM 29.4236 -81.9317 192° South 145 167 7,200  Level Jacksonville Center
Tue 10:19:08 AM 29.3861 -81.9417 193° South 145 167 7,200  Level Jacksonville Center
Tue 10:20:15 AM 29.3403 -81.9539 193° South 144 166 7,200 -45 Level Jacksonville Center
Tue 10:21:22 AM 29.3008 -81.9614 189° South 143 165 7,100 -49 Descending Jacksonville Center
Tue 10:22:17 AM 29.2633 -81.9736 196° South 141 162 7,100 52 Level Jacksonville Center
Tue 10:23:18 AM 29.2278 -81.9836 194° South 141 162 7,200  Climbing Jacksonville Center
Tue 10:24:19 AM 29.1883 -81.9936 192° South 140 161 7,100  Descending Jacksonville Center
Tue 10:25:20 AM 29.1467 -82.0058 194° South 140 161 7,200  Climbing Jacksonville Center
Tue 10:26:21 AM 29.1089 -82.0133 190° South 140 161 7,100  Descending Jacksonville Center
Tue 10:27:22 AM 29.0694 -82.0231 192° South 141 162 7,200 49 Climbing Jacksonville Center
Tue 10:28:23 AM 29.0339 -82.0328 193° South 140 161 7,200 -47 Level Jacksonville Center
Tue 10:29:30 AM 28.9903 -82.0450 194° South 139 160 7,100  Descending Jacksonville Center
Tue 10:30:31 AM 28.9528 -82.0550 193° South 140 161 7,200 52 Climbing Jacksonville Center
Tue 10:31:26 AM 28.9131 -82.0625 189° South 142 163 7,200  Level Jacksonville Center
Tue 10:32:26 AM 28.8778 -82.0744 197° South 141 162 7,200  Level Jacksonville Center
Tue 10:33:27 AM 28.8381 -82.0844 192° South 140 161 7,200  Level Jacksonville Center
Tue 10:34:34 AM 28.7922 -82.0967 193° South 142 163 7,200  Level Jacksonville Center
Tue 10:36:52 AM 28.7000 -82.1167 191° South 141 162 7,200  Level Tampa TRACON
Tue 10:37:52 AM 28.6667 -82.1333 204° Southwest 141 162 7,200 -50 Level Tampa TRACON
Tue 10:38:53 AM 28.6333 -82.1333 180° South 150 173 7,100  Descending Tampa TRACON
Tue 10:39:58 AM 28.5833 -82.1167 164° South 146 168 7,200 50 Climbing Tampa TRACON
Tue 10:40:53 AM 28.5500 -82.1167 180° South 142 163 7,200  Level Tampa TRACON
Tue 10:41:53 AM 28.5167 -82.1000 156° South 143 165 7,200 -48 Level Tampa TRACON
Tue 10:42:59 AM 28.4667 -82.1000 180° South 139 160 7,100  Descending Tampa TRACON
Tue 10:43:59 AM 28.4333 -82.1000 180° South 140 161 7,200  Climbing Tampa TRACON
Tue 10:44:59 AM 28.4000 -82.1167 204° Southwest 139 160 7,100 -50 Descending Tampa TRACON
Tue 10:45:59 AM 28.3667 -82.1167 180° South 137 158 7,100  Level Tampa TRACON
Tue 10:46:59 AM 28.3167 -82.1333 196° South 138 159 7,100 53 Level Tampa TRACON
Tue 10:47:53 AM 28.2833 -82.1333 180° South 139 160 7,200  Climbing Tampa TRACON
Tue 10:48:59 AM 28.2500 -82.1500 204° Southwest 141 162 7,100  Descending Tampa TRACON
Tue 10:49:53 AM 28.2167 -82.1667 204° Southwest 139 160 7,200 56 Climbing Tampa TRACON
Tue 10:50:47 AM 28.1833 -82.1667 180° South 139 160 7,200 -105 Level Tampa TRACON
Tue 10:51:47 AM 28.1333 -82.1833 196° South 140 161 7,000 -400 Descending Tampa TRACON
Tue 10:52:47 AM 28.1000 -82.1833 180° South 154 177 6,400 -381 Descending Tampa TRACON
Tue 10:53:53 AM 28.0500 -82.2000 196° South 155 178 6,200 -142 Descending Tampa TRACON
Tue 10:54:54 AM 28.0167 -82.2167 204° Southwest 146 168 6,100 -50 Descending Tampa TRACON
Tue 10:55:53 AM 27.9667 -82.2167 180° South 143 165 6,100  Level Tampa TRACON
Tue 10:56:54 AM 27.9333 -82.2333 204° Southwest 142 163 6,100  Level Tampa TRACON
Tue 10:57:54 AM 27.9000 -82.2333 180° South 142 163 6,100  Level Tampa TRACON
Tue 10:58:48 AM 27.8500 -82.2500 196° South 143 165 6,100  Level Tampa TRACON
Tue 10:59:48 AM 27.8167 -82.2500 180° South 145 167 6,100  Level Tampa TRACON
Tue 11:00:54 AM 27.7833 -82.2667 204° Southwest 143 165 6,100 48 Level Tampa TRACON
Tue 11:01:54 AM 27.7333 -82.2833 196° South 145 167 6,200  Climbing Tampa TRACON
Tue 11:02:54 AM 27.7000 -82.2833 180° South 145 167 6,100 -53 Descending Tampa TRACON
Tue 11:03:48 AM 27.6667 -82.3000 204° Southwest 146 168 6,100 56 Level Tampa TRACON
Tue 11:04:42 AM 27.6333 -82.3000 180° South 146 168 6,200 -53 Climbing Tampa TRACON
Tue 11:05:42 AM 27.5833 -82.3167 196° South 146 168 6,000 -381 Descending Tampa TRACON
Tue 11:06:48 AM 27.5333 -82.3333 196° South 161 185 5,400 -524 Descending Tampa TRACON
Tue 11:07:48 AM 27.5000 -82.3333 180° South 162 186 4,900 -526 Descending Tampa TRACON
Tue 11:08:42 AM 27.4500 -82.3500 196° South 161 185 4,400 -574 Descending Tampa TRACON
Tue 11:09:43 AM 27.4167 -82.3500 180° South 164 189 3,800 -571 Descending Tampa TRACON
Tue 11:10:48 AM 27.3667 -82.3667 196° South 165 190 3,200 -336 Descending Tampa TRACON
Tue 11:11:48 AM 27.3167 -82.3833 196° South 156 180 3,100 -50 Descending Tampa TRACON
Tue 11:12:48 AM 27.2833 -82.3833 180° South 147 169 3,100  Level Tampa TRACON

Login

Don't have an account? Register now (free) for customized features, flight alerts, and more!